Time;durP1;ratioP1;P1;durP2;ratioP2;P2;SDS_P1;SDS_P2;PMS_P1;PMS_P2;Temp;Humidity;BMP_temperature;BMP_pressure;BME280_temperature;BME280_humidity;BME280_pressure;Samples;Min_cycle;Max_cycle;Signal;HPM_P1;HPM_P2
2022/02/10 00:05:34;;;;;;;2.20;2.00;;;18.50;69.00;;;;;;5046610;28;20214;-69
2022/02/10 00:08:21;;;;;;;2.87;2.10;;;18.50;69.00;;;;;;5023671;28;20198;-68
2022/02/10 00:22:15;;;;;;;2.40;1.80;;;18.40;69.00;;;;;;5054798;28;20244;-68
2022/02/10 00:25:26;;;;;;;2.77;1.90;;;18.40;68.90;;;;;;5063896;28;20228;-68
2022/02/10 00:36:11;;;;;;;2.47;1.80;;;18.40;68.90;;;;;;5065997;28;20246;-69
2022/02/10 00:38:50;;;;;;;2.43;2.13;;;18.40;69.00;;;;;;5067487;28;20200;-69
2022/02/10 00:41:31;;;;;;;2.57;2.10;;;18.30;68.90;;;;;;5066145;28;20205;-69
2022/02/10 00:44:00;;;;;;;2.20;2.00;;;18.40;69.00;;;;;;5067767;28;20669;-69
2022/02/10 00:46:32;;;;;;;2.33;2.00;;;18.30;68.90;;;;;;5063976;28;20221;-68
2022/02/10 00:49:08;;;;;;;2.53;2.27;;;18.30;69.50;;;;;;5063733;28;20513;-68
2022/02/10 00:51:39;;;;;;;2.37;2.10;;;18.30;68.80;;;;;;5065916;28;20217;-68
2022/02/10 00:54:10;;;;;;;2.37;2.17;;;18.30;68.80;;;;;;5052330;28;20201;-68
2022/02/10 00:56:47;;;;;;;2.77;2.40;;;18.30;68.80;;;;;;5060522;28;20646;-68
2022/02/10 00:59:32;;;;;;;2.20;2.00;;;18.30;68.80;;;;;;5061264;28;20210;-68
2022/02/10 01:10:52;;;;;;;1.97;1.83;;;18.30;68.50;;;;;;5053384;28;20209;-68
2022/02/10 01:13:44;;;;;;;2.20;2.00;;;18.20;68.60;;;;;;5067940;28;20545;-68
2022/02/10 01:30:19;;;;;;;2.33;2.13;;;18.20;68.50;;;;;;5066903;28;20205;-69
2022/02/10 01:32:57;;;;;;;2.03;1.70;;;18.20;68.50;;;;;;5043521;28;20193;-69
2022/02/10 01:35:30;;;;;;;2.53;2.07;;;18.20;68.40;;;;;;5065149;28;20210;-69
2022/02/10 01:38:00;;;;;;;2.40;2.20;;;18.20;68.50;;;;;;5030378;28;20205;-69
2022/02/10 01:41:17;;;;;;;3.07;2.37;;;18.20;68.30;;;;;;5053207;28;20225;-69
2022/02/10 01:58:13;;;;;;;2.40;2.03;;;18.20;68.30;;;;;;5063893;28;20213;-69
2022/02/10 02:03:37;;;;;;;2.50;2.10;;;18.10;68.30;;;;;;5069389;28;20198;-68
2022/02/10 02:06:12;;;;;;;2.30;2.10;;;18.10;68.20;;;;;;5064484;28;20202;-68
2022/02/10 02:08:42;;;;;;;2.80;2.10;;;18.20;68.00;;;;;;5063576;28;20214;-68
2022/02/10 02:11:13;;;;;;;3.20;2.13;;;18.20;68.10;;;;;;5053283;28;21003;-68
2022/02/10 02:13:42;;;;;;;2.73;2.47;;;18.10;67.90;;;;;;5054252;28;20223;-69
2022/02/10 02:16:11;;;;;;;2.87;2.67;;;18.10;68.00;;;;;;5069097;28;20198;-69
2022/02/10 02:18:42;;;;;;;2.30;2.07;;;18.10;68.10;;;;;;5066026;28;20288;-69
2022/02/10 02:21:23;;;;;;;2.70;2.50;;;18.10;68.10;;;;;;5062210;28;20249;-68
2022/02/10 02:23:55;;;;;;;2.50;2.30;;;18.10;68.00;;;;;;5067123;28;20206;-68
2022/02/10 02:26:27;;;;;;;2.00;1.90;;;18.10;68.00;;;;;;5069617;28;20210;-69
2022/02/10 02:29:00;;;;;;;2.30;2.10;;;18.10;68.10;;;;;;5051635;28;20266;-68
2022/02/10 02:31:40;;;;;;;2.77;2.20;;;18.10;68.10;;;;;;5069650;28;20213;-69
2022/02/10 03:05:27;;;;;;;3.43;2.70;;;18.00;67.40;;;;;;5065064;28;20197;-68
2022/02/10 03:07:59;;;;;;;4.17;2.97;;;18.00;67.30;;;;;;5069227;28;20201;-69
2022/02/10 03:12:59;;;;;;;3.47;3.00;;;18.00;67.10;;;;;;5066060;28;20646;-68
2022/02/10 03:15:36;;;;;;;3.50;3.20;;;18.00;66.90;;;;;;5066976;28;20251;-68
2022/02/10 03:21:11;;;;;;;3.73;3.33;;;18.00;66.80;;;;;;5071382;28;20209;-70
2022/02/10 04:01:08;;;;;;;4.00;2.90;;;17.90;67.20;;;;;;5065314;28;20263;-68
2022/02/10 04:06:34;;;;;;;3.30;2.70;;;17.90;67.10;;;;;;5058319;28;20225;-68
2022/02/10 04:12:34;;;;;;;3.53;2.90;;;17.90;67.10;;;;;;5066055;28;20283;-68
2022/02/10 04:19:05;;;;;;;4.73;2.73;;;17.90;67.20;;;;;;4994788;28;20621;-68
2022/02/10 04:27:07;;;;;;;3.60;2.63;;;17.80;67.00;;;;;;5062775;28;20198;-68
2022/02/10 05:17:35;;;;;;;4.63;3.43;;;17.80;66.70;;;;;;5064402;28;20202;-68
2022/02/10 05:23:29;;;;;;;4.87;3.90;;;17.70;66.50;;;;;;5054660;28;20337;-68
2022/02/10 05:35:07;;;;;;;4.27;3.80;;;17.70;66.40;;;;;;5039069;28;20204;-68
2022/02/10 05:37:55;;;;;;;4.50;4.10;;;17.70;66.40;;;;;;5052553;28;20197;-68
2022/02/10 05:41:26;;;;;;;5.13;3.60;;;17.70;66.40;;;;;;5053795;28;20206;-68
2022/02/10 05:57:54;;;;;;;4.00;3.60;;;17.70;66.20;;;;;;5045862;28;20287;-68
2022/02/10 06:01:38;;;;;;;4.13;3.60;;;17.70;66.10;;;;;;5066396;28;21671;-69
2022/02/10 06:45:55;;;;;;;5.07;4.57;;;17.60;65.50;;;;;;5066953;28;20666;-68
2022/02/10 06:52:19;;;;;;;5.67;5.00;;;17.60;65.40;;;;;;5070890;28;20189;-67
2022/02/10 07:03:57;;;;;;;7.10;5.13;;;17.60;65.30;;;;;;5067532;28;20308;-68
2022/02/10 07:06:40;;;;;;;11.03;5.47;;;17.60;65.30;;;;;;5070501;28;20209;-66
2022/02/10 07:09:38;;;;;;;6.03;4.83;;;17.60;65.30;;;;;;5058087;28;20232;-66
2022/02/10 07:12:28;;;;;;;7.73;5.07;;;17.60;65.30;;;;;;5038396;28;20411;-68
2022/02/10 07:52:51;;;;;;;60.97;15.40;;;17.60;65.80;;;;;;4982187;28;20204;-65
2022/02/10 07:56:00;;;;;;;43.77;14.03;;;17.60;66.90;;;;;;4985934;28;20208;-66
2022/02/10 07:59:01;;;;;;;49.60;13.40;;;17.70;67.30;;;;;;4985586;28;20232;-65
2022/02/10 08:50:00;;;;;;;8.73;5.67;;;20.90;60.10;;;;;;5034350;28;20206;-68
2022/02/10 09:04:12;;;;;;;9.00;5.87;;;20.50;61.10;;;;;;5003828;28;20228;-65
2022/02/10 09:12:43;;;;;;;7.77;5.70;;;20.40;61.40;;;;;;5006215;28;20254;-69
2022/02/10 09:18:41;;;;;;;9.70;6.07;;;20.30;61.50;;;;;;5004725;28;20199;-68
2022/02/10 09:47:23;;;;;;;7.87;5.87;;;20.30;61.40;;;;;;5000059;28;20318;-69
2022/02/10 09:51:40;;;;;;;6.70;5.17;;;20.30;61.40;;;;;;5063616;28;20660;-71
2022/02/10 09:56:00;;;;;;;8.40;4.97;;;20.40;61.50;;;;;;5035742;28;20266;-69
2022/02/10 09:58:55;;;;;;;5.43;4.20;;;20.30;61.30;;;;;;5062525;28;20214;-69
2022/02/10 10:01:58;;;;;;;5.20;4.60;;;20.30;61.10;;;;;;5065741;28;20234;-69
2022/02/10 10:04:31;;;;;;;5.53;4.73;;;20.40;61.20;;;;;;5057702;28;20258;-65
2022/02/10 10:07:44;;;;;;;5.70;4.50;;;20.40;61.40;;;;;;5047311;28;20202;-66
2022/02/10 10:14:04;;;;;;;4.23;3.83;;;20.40;61.00;;;;;;5065315;28;20245;-66
2022/02/10 10:19:05;;;;;;;4.53;4.10;;;20.40;60.90;;;;;;5070591;28;20205;-68
2022/02/10 10:27:29;;;;;;;5.77;4.10;;;20.40;60.70;;;;;;5068741;28;20205;-66
2022/02/10 10:44:34;;;;;;;3.93;3.53;;;20.40;61.20;;;;;;5047570;28;20205;-68
2022/02/10 10:44:35;;;;;;;4.60;3.70;;;20.40;60.40;;;;;;5059981;28;20268;-66
2022/02/10 10:54:12;;;;;;;3.93;3.53;;;20.40;60.50;;;;;;5054127;28;20659;-69
2022/02/10 10:56:46;;;;;;;3.70;3.40;;;20.40;60.10;;;;;;5071883;28;20189;-66
2022/02/10 11:38:42;;;;;;;4.70;3.50;;;20.00;61.70;;;;;;5043217;28;20198;-67
2022/02/10 11:41:30;;;;;;;2.93;2.63;;;20.00;62.10;;;;;;5066282;28;20205;-68
2022/02/10 11:44:41;;;;;;;3.47;2.87;;;20.00;62.20;;;;;;5063781;28;20218;-68
2022/02/10 11:47:42;;;;;;;3.10;2.80;;;20.10;62.40;;;;;;5049996;28;20567;-69
2022/02/10 14:18:53;;;;;;;1.83;1.00;;;20.80;61.00;;;;;;5049786;28;20205;-65
2022/02/10 14:21:31;;;;;;;1.67;1.00;;;20.80;60.90;;;;;;5065198;28;20214;-66
2022/02/10 14:26:55;;;;;;;1.47;0.70;;;20.90;60.80;;;;;;5068569;28;20202;-64
2022/02/10 14:29:25;;;;;;;1.17;0.73;;;20.90;60.90;;;;;;5069256;28;20221;-64
2022/02/10 14:31:55;;;;;;;1.23;0.93;;;20.90;60.90;;;;;;5067116;28;20201;-64
2022/02/10 14:34:29;;;;;;;3.87;1.07;;;20.90;60.80;;;;;;5065487;28;20221;-67
2022/02/10 14:37:19;;;;;;;1.60;1.20;;;20.90;60.60;;;;;;5063359;28;20408;-64
2022/02/10 15:35:37;;;;;;;2.60;1.00;;;19.50;64.80;;;;;;5046370;28;20707;-64
2022/02/10 16:16:54;;;;;;;1.60;0.80;;;19.10;65.50;;;;;;5054174;28;20278;-63
2022/02/10 16:19:26;;;;;;;1.57;0.80;;;19.10;65.70;;;;;;5047813;28;20213;-64
2022/02/10 16:22:01;;;;;;;1.37;0.87;;;19.10;65.80;;;;;;5041689;28;20210;-66
2022/02/10 16:24:44;;;;;;;1.90;0.83;;;19.10;65.60;;;;;;5043433;28;20246;-66
2022/02/10 16:27:28;;;;;;;1.43;0.93;;;19.10;65.60;;;;;;5048523;28;20198;-65
2022/02/10 16:30:15;;;;;;;2.47;1.20;;;19.10;65.70;;;;;;5061139;28;20190;-64
2022/02/10 16:32:59;;;;;;;2.27;1.20;;;19.00;65.50;;;;;;5054880;28;20206;-64
2022/02/10 16:35:39;;;;;;;1.83;1.07;;;19.00;65.50;;;;;;5062378;28;20219;-67
2022/02/10 16:38:21;;;;;;;2.20;1.00;;;19.00;65.60;;;;;;5046807;28;20282;-64
2022/02/10 16:41:00;;;;;;;2.13;0.90;;;19.00;65.60;;;;;;5065083;28;20212;-65
2022/02/10 16:43:35;;;;;;;2.53;1.20;;;18.90;65.60;;;;;;5056048;28;20215;-66
2022/02/10 16:46:24;;;;;;;2.53;1.10;;;19.00;65.60;;;;;;5000717;28;20340;-66
2022/02/10 16:48:55;;;;;;;2.83;0.90;;;19.00;65.60;;;;;;4998803;28;20601;-67
2022/02/10 16:51:25;;;;;;;2.20;1.13;;;18.90;65.60;;;;;;4971670;28;20719;-67
2022/02/10 16:54:09;;;;;;;1.33;0.93;;;18.90;65.60;;;;;;5000184;28;20219;-67
2022/02/10 16:57:17;;;;;;;1.67;1.00;;;18.90;65.50;;;;;;4985788;28;20262;-67
2022/02/10 17:03:09;;;;;;;1.50;1.13;;;18.90;65.60;;;;;;5005091;28;20207;-66
2022/02/10 17:20:23;;;;;;;4.23;1.20;;;18.80;65.10;;;;;;5066293;28;20205;-66
2022/02/10 17:26:00;;;;;;;2.17;1.10;;;18.80;65.10;;;;;;5050539;28;20929;-67
2022/02/10 17:28:29;;;;;;;2.20;1.07;;;18.70;65.00;;;;;;5060306;28;20605;-66
2022/02/10 17:31:24;;;;;;;1.63;1.03;;;18.70;65.20;;;;;;5052739;28;20220;-67
2022/02/10 17:37:09;;;;;;;2.00;0.93;;;18.70;65.60;;;;;;5058309;28;20194;-66
2022/02/10 17:45:52;;;;;;;4.70;1.40;;;18.60;65.40;;;;;;5061016;28;20245;-66
2022/02/10 17:54:03;;;;;;;8.07;3.27;;;18.60;65.50;;;;;;5021114;28;20668;-66
2022/02/10 17:56:35;;;;;;;10.73;3.70;;;18.60;65.50;;;;;;5023396;28;20348;-66
2022/02/10 17:59:06;;;;;;;9.77;3.83;;;18.60;65.50;;;;;;5008176;28;21000;-66
2022/02/10 18:01:39;;;;;;;8.43;3.10;;;18.60;65.40;;;;;;5022202;28;20203;-66
2022/02/10 18:04:12;;;;;;;9.77;3.40;;;18.60;65.50;;;;;;5002377;28;20269;-66
2022/02/10 18:06:48;;;;;;;9.20;3.40;;;18.60;65.40;;;;;;5015922;28;20823;-66
2022/02/10 18:10:05;;;;;;;6.97;2.43;;;18.60;65.40;;;;;;4996321;28;20743;-66
2022/02/10 18:15:23;;;;;;;5.47;3.03;;;18.60;65.30;;;;;;5037752;28;20297;-66
2022/02/10 18:18:00;;;;;;;6.50;2.80;;;18.50;65.20;;;;;;5041358;28;20228;-66
2022/02/10 18:20:38;;;;;;;6.20;2.80;;;18.60;65.30;;;;;;5058439;28;20932;-66
2022/02/10 18:23:16;;;;;;;6.17;2.63;;;18.50;65.10;;;;;;5055429;28;20664;-66
2022/02/10 18:26:02;;;;;;;4.73;2.10;;;18.50;65.10;;;;;;5057715;28;20222;-67
2022/02/10 18:29:00;;;;;;;4.97;2.77;;;18.50;65.10;;;;;;5056240;28;20194;-66
2022/02/10 19:08:37;;;;;;;4.77;1.33;;;18.30;64.20;;;;;;5055742;28;20196;-67
2022/02/10 19:11:09;;;;;;;4.07;1.50;;;18.40;64.30;;;;;;5058563;28;20221;-67
2022/02/10 19:13:40;;;;;;;2.60;1.30;;;18.40;64.20;;;;;;5063852;28;20234;-66
2022/02/10 19:16:11;;;;;;;2.87;1.30;;;18.30;64.40;;;;;;5066173;28;20216;-66
2022/02/10 19:18:52;;;;;;;3.10;1.20;;;18.30;65.20;;;;;;5066480;28;20638;-66
2022/02/10 19:21:25;;;;;;;3.43;1.63;;;18.30;65.70;;;;;;5061080;28;20225;-66
2022/02/10 19:23:55;;;;;;;5.53;1.60;;;18.40;65.80;;;;;;5067193;28;20211;-66
2022/02/10 19:26:26;;;;;;;4.23;1.40;;;18.30;65.60;;;;;;5066499;28;20214;-66
2022/02/10 19:28:57;;;;;;;2.17;1.00;;;18.30;65.40;;;;;;5059919;28;20201;-66
2022/02/10 19:31:32;;;;;;;3.37;1.60;;;18.30;65.20;;;;;;5064999;28;20204;-66
2022/02/10 19:34:05;;;;;;;2.97;1.60;;;18.30;65.10;;;;;;5054741;28;20213;-66
2022/02/10 19:36:37;;;;;;;2.50;1.50;;;18.30;65.20;;;;;;5047514;28;20252;-66
2022/02/10 19:39:19;;;;;;;3.83;1.40;;;18.30;65.00;;;;;;5060178;28;20261;-66
2022/02/10 19:41:53;;;;;;;3.67;1.23;;;18.30;64.90;;;;;;5063968;28;20320;-66
2022/02/10 19:44:33;;;;;;;2.10;1.27;;;18.30;64.80;;;;;;5074621;28;20250;-66
2022/02/10 19:47:05;;;;;;;1.70;1.00;;;18.30;64.90;;;;;;5053125;28;20265;-66
2022/02/10 19:50:05;;;;;;;2.53;1.13;;;18.20;64.70;;;;;;5049020;28;20198;-67
2022/02/10 19:53:08;;;;;;;1.70;0.90;;;18.30;64.70;;;;;;5048769;28;20217;-66
2022/02/10 19:55:48;;;;;;;2.60;1.20;;;18.40;64.90;;;;;;5065584;28;20208;-66
2022/02/10 19:58:21;;;;;;;3.03;1.20;;;18.40;65.00;;;;;;5061796;28;20209;-66
2022/02/10 20:00:56;;;;;;;2.57;1.67;;;18.50;64.90;;;;;;5062455;28;20201;-66
2022/02/10 20:03:39;;;;;;;2.07;0.90;;;18.50;64.80;;;;;;5050756;28;20274;-66
2022/02/10 20:06:09;;;;;;;2.27;0.97;;;18.60;64.60;;;;;;5034674;28;20229;-66
2022/02/10 20:08:43;;;;;;;1.90;1.10;;;18.60;64.40;;;;;;5036611;28;20248;-66
2022/02/10 20:11:18;;;;;;;1.93;1.20;;;18.60;64.20;;;;;;5055698;28;20213;-66
2022/02/10 20:13:46;;;;;;;1.73;0.93;;;18.70;64.10;;;;;;5066369;28;20234;-66
2022/02/10 20:16:28;;;;;;;2.03;1.07;;;18.70;64.00;;;;;;5064322;28;20825;-66
2022/02/10 20:18:56;;;;;;;2.23;1.27;;;18.80;63.80;;;;;;5038216;28;20213;-66
2022/02/10 20:21:27;;;;;;;2.00;1.10;;;18.80;63.60;;;;;;5045718;28;20234;-66
2022/02/10 20:23:56;;;;;;;2.23;1.20;;;18.80;63.60;;;;;;5057187;28;20572;-66
2022/02/10 20:26:26;;;;;;;2.70;1.20;;;18.90;63.60;;;;;;5046697;28;20512;-66
2022/02/10 20:28:57;;;;;;;2.17;1.10;;;18.90;63.40;;;;;;5044483;28;20631;-66
2022/02/10 20:31:29;;;;;;;6.43;1.23;;;18.90;63.30;;;;;;5040172;28;20266;-66
2022/02/10 20:33:59;;;;;;;2.57;1.20;;;19.00;63.30;;;;;;5051093;28;20222;-66
2022/02/10 20:36:30;;;;;;;1.80;1.10;;;19.00;63.20;;;;;;5059523;28;20221;-66
2022/02/10 20:39:06;;;;;;;1.20;0.93;;;19.00;62.90;;;;;;5057277;28;20205;-66
2022/02/10 20:41:41;;;;;;;1.70;1.20;;;19.10;62.90;;;;;;5062800;28;20229;-66
2022/02/10 20:44:13;;;;;;;2.33;1.10;;;19.10;62.90;;;;;;5057588;28;20690;-66
2022/02/10 20:46:49;;;;;;;1.93;1.30;;;19.10;62.80;;;;;;5069824;28;20351;-66
2022/02/10 20:49:18;;;;;;;2.00;1.40;;;19.20;62.70;;;;;;5044539;28;20231;-66
2022/02/10 20:51:50;;;;;;;2.23;1.20;;;19.20;62.60;;;;;;5065807;28;20534;-66
2022/02/10 20:54:27;;;;;;;3.53;1.03;;;19.20;62.60;;;;;;5049784;28;20213;-66
2022/02/10 20:57:03;;;;;;;1.73;1.00;;;19.30;62.60;;;;;;5046639;28;20195;-66
2022/02/10 20:59:47;;;;;;;1.20;1.00;;;19.30;62.50;;;;;;5062006;28;20193;-66
2022/02/10 21:02:28;;;;;;;1.50;1.17;;;19.30;62.40;;;;;;5064863;28;20205;-67
2022/02/10 21:05:15;;;;;;;2.90;1.40;;;19.30;62.40;;;;;;5050894;28;20447;-65
2022/02/10 21:08:12;;;;;;;5.23;1.47;;;19.30;63.30;;;;;;5066899;28;20294;-63
2022/02/10 21:10:44;;;;;;;3.97;1.40;;;19.40;62.30;;;;;;5061460;28;20627;-65
2022/02/10 21:13:13;;;;;;;4.40;1.50;;;19.40;62.30;;;;;;5061891;28;20705;-66
2022/02/10 21:15:46;;;;;;;5.00;1.43;;;19.30;62.50;;;;;;5062826;28;20221;-65
2022/02/10 21:18:19;;;;;;;1.90;1.10;;;19.30;62.50;;;;;;5047601;28;20198;-66
2022/02/10 21:21:04;;;;;;;3.30;1.30;;;19.30;62.40;;;;;;5058395;28;20213;-68
2022/02/10 21:23:42;;;;;;;2.17;1.10;;;19.30;62.50;;;;;;5062968;28;20209;-68
2022/02/10 21:26:12;;;;;;;4.17;1.33;;;19.30;62.90;;;;;;5044615;28;20220;-67
2022/02/10 21:28:43;;;;;;;5.97;1.30;;;19.30;62.90;;;;;;5067255;28;20212;-68
2022/02/10 21:31:16;;;;;;;3.23;1.10;;;19.30;63.10;;;;;;5060953;28;20198;-68
2022/02/10 21:34:16;;;;;;;4.77;1.60;;;19.40;63.20;;;;;;5059020;28;20296;-71
2022/02/10 21:37:00;;;;;;;4.10;1.43;;;19.30;63.00;;;;;;5056252;28;20279;-72
2022/02/10 21:48:18;;;;;;;2.40;1.23;;;19.30;62.70;;;;;;5061468;28;20210;-70
2022/02/10 21:54:32;;;;;;;6.30;1.40;;;19.30;62.60;;;;;;5060704;28;20209;-70
2022/02/10 22:03:27;;;;;;;3.30;1.13;;;19.30;62.40;;;;;;5062359;28;20228;-69
2022/02/10 22:16:59;;;;;;;1.30;1.10;;;19.30;62.20;;;;;;5068189;28;20201;-65
2022/02/10 22:19:43;;;;;;;1.77;1.20;;;19.30;62.90;;;;;;5060117;28;20210;-67
2022/02/10 22:22:19;;;;;;;2.80;1.27;;;19.30;62.10;;;;;;5062934;28;20217;-67
2022/02/10 22:24:50;;;;;;;2.60;1.10;;;19.30;62.00;;;;;;5052139;28;20210;-69
2022/02/10 22:27:23;;;;;;;3.53;1.00;;;19.30;62.10;;;;;;5066713;28;20224;-67
2022/02/10 22:30:14;;;;;;;6.67;1.40;;;19.20;62.50;;;;;;5049435;28;20315;-67
2022/02/10 22:32:51;;;;;;;2.63;1.33;;;19.30;62.40;;;;;;5068442;28;20205;-67
2022/02/10 22:35:22;;;;;;;1.20;0.77;;;19.20;62.10;;;;;;5060801;28;20220;-67
2022/02/10 22:37:56;;;;;;;2.77;1.37;;;19.20;62.10;;;;;;5068126;28;20225;-67
2022/02/10 22:41:00;;;;;;;1.63;1.10;;;19.20;62.10;;;;;;5067391;28;20193;-66
2022/02/10 22:43:48;;;;;;;1.00;0.90;;;19.10;62.10;;;;;;5068662;28;20209;-67
2022/02/10 22:46:21;;;;;;;1.83;0.90;;;19.10;62.00;;;;;;5046596;28;20716;-66
2022/02/10 22:48:54;;;;;;;1.57;1.17;;;19.00;61.90;;;;;;5065736;28;20189;-67
2022/02/10 22:51:31;;;;;;;1.73;1.20;;;19.00;62.00;;;;;;5049326;28;20199;-67
2022/02/10 22:54:21;;;;;;;2.87;1.20;;;19.00;61.90;;;;;;5066420;28;20224;-67
2022/02/10 22:57:00;;;;;;;1.63;0.97;;;19.00;61.90;;;;;;5062249;28;20216;-67
2022/02/10 22:59:29;;;;;;;2.27;1.10;;;18.90;61.90;;;;;;5067953;28;20647;-67
2022/02/10 23:01:59;;;;;;;1.70;0.90;;;18.90;62.00;;;;;;5063512;28;20208;-67
2022/02/10 23:04:28;;;;;;;2.47;0.90;;;18.90;62.00;;;;;;5066962;28;20206;-67
2022/02/10 23:07:01;;;;;;;1.30;0.83;;;18.90;62.10;;;;;;5065562;28;20344;-66
2022/02/10 23:09:31;;;;;;;4.40;1.00;;;18.80;62.00;;;;;;5054602;28;20221;-66
2022/02/10 23:12:07;;;;;;;1.67;0.97;;;18.80;62.00;;;;;;5068654;28;20193;-67
2022/02/10 23:14:38;;;;;;;1.67;0.90;;;18.80;62.00;;;;;;5068230;28;20216;-67
2022/02/10 23:17:07;;;;;;;2.17;1.10;;;18.80;62.00;;;;;;5065495;28;20208;-67
2022/02/10 23:19:39;;;;;;;3.57;1.40;;;18.80;62.10;;;;;;5055473;28;20280;-67
2022/02/10 23:22:13;;;;;;;0.83;0.83;;;18.80;62.00;;;;;;5049920;28;20221;-67
2022/02/10 23:24:45;;;;;;;1.33;1.03;;;18.70;62.00;;;;;;5065911;28;20651;-67
2022/02/10 23:27:13;;;;;;;1.60;1.17;;;18.70;62.00;;;;;;5056704;28;20675;-67
2022/02/10 23:29:43;;;;;;;1.20;1.10;;;18.70;62.00;;;;;;5063477;28;20287;-67
2022/02/10 23:32:13;;;;;;;1.40;0.80;;;18.70;62.00;;;;;;5052467;28;20197;-67
2022/02/10 23:34:46;;;;;;;2.60;1.00;;;18.70;62.00;;;;;;5058412;28;20221;-66
2022/02/10 23:37:13;;;;;;;2.50;1.23;;;18.60;62.00;;;;;;5062248;28;20217;-66
2022/02/10 23:39:46;;;;;;;1.33;1.03;;;18.60;62.00;;;;;;5061599;28;20210;-66
2022/02/10 23:42:29;;;;;;;1.57;1.10;;;18.60;62.00;;;;;;5067269;28;20197;-67
2022/02/10 23:45:06;;;;;;;2.17;1.33;;;18.60;62.00;;;;;;5061430;28;20197;-67
2022/02/10 23:47:42;;;;;;;2.63;1.07;;;18.60;62.00;;;;;;5078154;28;20213;-67
2022/02/10 23:50:20;;;;;;;1.63;1.43;;;18.50;62.00;;;;;;5062681;28;20837;-67
2022/02/10 23:52:54;;;;;;;1.27;1.00;;;18.50;62.00;;;;;;5068274;28;20239;-67
2022/02/10 23:55:32;;;;;;;1.80;1.20;;;18.50;62.00;;;;;;5074145;28;20209;-66
2022/02/10 23:58:28;;;;;;;1.70;1.17;;;18.50;62.00;;;;;;5063310;28;20311;-67
